QTR49U EDDM-OTHH
Flight info
| Callsign | QTR49U |
|---|---|
| Flight time | N/A |
| Altitude | 29000 |
| Route | ROTAX4Q ROTAX L603 LATLO DCT OBEDI/N0490F330 DCT DIPSA/N0478F370 DCT PODET DCT GUBOK DCT DER DCT SOMUN DCT ELGEB DCT SOSEK DCT NISVA DCT USALI DCT OTKOK DCT RODIP DCT BELGI UT38 VESAR DCT NIKAS R785 RASLI P559 TRF R23 NEVOL N318 GIBAM/N0486F390 N318 TAMRO T503 KSA N687 KINIB Z511 GISRA L681 ORLEK |
| Aircraft | B77W/H-SDE1E2E3FGHIJ2J3J4J5M1RWXY/LB1D1 |
Departure
| Time | 2026-05-06 14:08 |
|---|---|
| Airport | Munich Airport (EDDM) |
Arrival
| Time | N/A |
|---|---|
| Airport | Hamad International Airport (OTHH) |
| Time | Latitude | Longitude | Altitude | Speed | Heading |
|---|---|---|---|---|---|
| 2026-05-06 13:04 | 48.35275 | 11.78297 | 1487 ft | 0 kts | 83° |
| 2026-05-06 13:50 | 48.35273 | 11.78278 | 1487 ft | 2 kts | 83° |
| 2026-05-06 13:50 | 48.35272 | 11.78256 | 1487 ft | 2 kts | 83° |
| 2026-05-06 13:50 | 48.35271 | 11.78241 | 1487 ft | 2 kts | 82° |
| 2026-05-06 13:51 | 48.35267 | 11.78220 | 1487 ft | 2 kts | 61° |
| 2026-05-06 13:51 | 48.35258 | 11.78202 | 1487 ft | 2 kts | 43° |
| 2026-05-06 13:51 | 48.35246 | 11.78189 | 1487 ft | 2 kts | 25° |
| 2026-05-06 13:51 | 48.35232 | 11.78182 | 1487 ft | 2 kts | 7° |
| 2026-05-06 13:52 | 48.35221 | 11.78182 | 1487 ft | 0 kts | 354° |
| 2026-05-06 13:52 | 48.35217 | 11.78182 | 1487 ft | 0 kts | 353° |
| 2026-05-06 13:57 | 48.35218 | 11.78182 | 1487 ft | 0 kts | 353° |
| 2026-05-06 13:58 | 48.35240 | 11.78179 | 1487 ft | 5 kts | 354° |
| 2026-05-06 13:58 | 48.35294 | 11.78171 | 1487 ft | 8 kts | 354° |
| 2026-05-06 13:58 | 48.35344 | 11.78135 | 1487 ft | 7 kts | 297° |
| 2026-05-06 13:58 | 48.35347 | 11.78055 | 1487 ft | 7 kts | 264° |
| 2026-05-06 13:59 | 48.35342 | 11.77978 | 1487 ft | 7 kts | 263° |
| 2026-05-06 13:59 | 48.35336 | 11.77907 | 1487 ft | 6 kts | 263° |
| 2026-05-06 13:59 | 48.35326 | 11.77832 | 1487 ft | 7 kts | 240° |
| 2026-05-06 13:59 | 48.35288 | 11.77797 | 1487 ft | 6 kts | 185° |
| 2026-05-06 14:00 | 48.35240 | 11.77802 | 1487 ft | 6 kts | 175° |
| 2026-05-06 14:00 | 48.35190 | 11.77810 | 1487 ft | 8 kts | 173° |
| 2026-05-06 14:00 | 48.35113 | 11.77823 | 1488 ft | 13 kts | 174° |
| 2026-05-06 14:00 | 48.35013 | 11.77840 | 1488 ft | 14 kts | 173° |
| 2026-05-06 14:01 | 48.34920 | 11.77857 | 1488 ft | 12 kts | 174° |
| 2026-05-06 14:01 | 48.34837 | 11.77871 | 1488 ft | 11 kts | 173° |
| 2026-05-06 14:01 | 48.34769 | 11.77882 | 1489 ft | 9 kts | 174° |
| 2026-05-06 14:01 | 48.34707 | 11.77892 | 1489 ft | 9 kts | 178° |
| 2026-05-06 14:02 | 48.34659 | 11.77836 | 1489 ft | 10 kts | 250° |
| 2026-05-06 14:02 | 48.34649 | 11.77718 | 1490 ft | 12 kts | 264° |
| 2026-05-06 14:02 | 48.34636 | 11.77559 | 1490 ft | 17 kts | 263° |
| 2026-05-06 14:02 | 48.34620 | 11.77350 | 1491 ft | 22 kts | 263° |
| 2026-05-06 14:03 | 48.34600 | 11.77091 | 1491 ft | 26 kts | 263° |
| 2026-05-06 14:03 | 48.34579 | 11.76811 | 1492 ft | 27 kts | 263° |
| 2026-05-06 14:03 | 48.34558 | 11.76525 | 1493 ft | 27 kts | 264° |
| 2026-05-06 14:03 | 48.34535 | 11.76240 | 1493 ft | 27 kts | 264° |
| 2026-05-06 14:04 | 48.34513 | 11.75951 | 1494 ft | 27 kts | 263° |
| 2026-05-06 14:04 | 48.34493 | 11.75682 | 1495 ft | 24 kts | 264° |
| 2026-05-06 14:04 | 48.34473 | 11.75437 | 1495 ft | 22 kts | 263° |
| 2026-05-06 14:04 | 48.34458 | 11.75240 | 1496 ft | 17 kts | 263° |
| 2026-05-06 14:05 | 48.34443 | 11.75100 | 1497 ft | 10 kts | 244° |
| 2026-05-06 14:05 | 48.34388 | 11.75068 | 1497 ft | 8 kts | 175° |
| 2026-05-06 14:05 | 48.34325 | 11.75079 | 1497 ft | 9 kts | 174° |
| 2026-05-06 14:05 | 48.34251 | 11.75090 | 1498 ft | 10 kts | 174° |
| 2026-05-06 14:06 | 48.34180 | 11.75101 | 1498 ft | 9 kts | 174° |
| 2026-05-06 14:06 | 48.34114 | 11.75112 | 1498 ft | 6 kts | 174° |
| 2026-05-06 14:06 | 48.34086 | 11.75119 | 1498 ft | 3 kts | 155° |
| 2026-05-06 14:06 | 48.34076 | 11.75141 | 1498 ft | 2 kts | 108° |
| 2026-05-06 14:07 | 48.34074 | 11.75173 | 1498 ft | 4 kts | 87° |
| 2026-05-06 14:07 | 48.34081 | 11.75289 | 1498 ft | 26 kts | 84° |
| 2026-05-06 14:07 | 48.34129 | 11.75918 | 1497 ft | 93 kts | 83° |
| 2026-05-06 14:07 | 48.34227 | 11.77196 | 1493 ft | 152 kts | 84° |
| 2026-05-06 14:08 | 48.34364 | 11.79002 | 1632 ft | 188 kts | 84° |
| 2026-05-06 14:08 | 48.34487 | 11.80988 | 2207 ft | 196 kts | 84° |
| 2026-05-06 14:08 | 48.34614 | 11.82996 | 2909 ft | 200 kts | 82° |
| 2026-05-06 14:08 | 48.34796 | 11.85201 | 3122 ft | 225 kts | 82° |
| 2026-05-06 14:09 | 48.34996 | 11.87625 | 3574 ft | 239 kts | 81° |
| 2026-05-06 14:09 | 48.35218 | 11.90140 | 4026 ft | 254 kts | 82° |
| 2026-05-06 14:09 | 48.35371 | 11.92838 | 4583 ft | 265 kts | 92° |
| 2026-05-06 14:09 | 48.34945 | 11.95511 | 5375 ft | 264 kts | 115° |
| 2026-05-06 14:10 | 48.34106 | 11.97980 | 6045 ft | 270 kts | 117° |
| 2026-05-06 14:10 | 48.33262 | 12.00477 | 6770 ft | 272 kts | 115° |
| 2026-05-06 14:10 | 48.32517 | 12.03059 | 7448 ft | 276 kts | 113° |
| 2026-05-06 14:10 | 48.31775 | 12.05736 | 8075 ft | 281 kts | 115° |
| 2026-05-06 14:11 | 48.30991 | 12.08429 | 8752 ft | 284 kts | 116° |
| 2026-05-06 14:11 | 48.30163 | 12.11150 | 9452 ft | 285 kts | 121° |
| 2026-05-06 14:11 | 48.28941 | 12.13433 | 10078 ft | 282 kts | 143° |
| 2026-05-06 14:11 | 48.27246 | 12.14907 | 10321 ft | 296 kts | 163° |
| 2026-05-06 14:12 | 48.25150 | 12.15413 | 10486 ft | 314 kts | 179° |
| 2026-05-06 14:12 | 48.22958 | 12.15676 | 11017 ft | 324 kts | 169° |
| 2026-05-06 14:12 | 48.20754 | 12.16776 | 11428 ft | 342 kts | 159° |
| 2026-05-06 14:12 | 48.18556 | 12.18222 | 12077 ft | 350 kts | 158° |
| 2026-05-06 14:13 | 48.16342 | 12.19712 | 12902 ft | 354 kts | 158° |
| 2026-05-06 14:13 | 48.14093 | 12.21240 | 13713 ft | 361 kts | 155° |
| 2026-05-06 14:13 | 48.11934 | 12.23269 | 14582 ft | 369 kts | 148° |
| 2026-05-06 14:13 | 48.09855 | 12.25485 | 15586 ft | 371 kts | 148° |
| 2026-05-06 14:14 | 48.07776 | 12.27714 | 16630 ft | 372 kts | 149° |
| 2026-05-06 14:14 | 48.05697 | 12.29937 | 17559 ft | 375 kts | 149° |
| 2026-05-06 14:14 | 48.03560 | 12.32216 | 18479 ft | 378 kts | 150° |
| 2026-05-06 14:14 | 48.01415 | 12.34500 | 19358 ft | 382 kts | 150° |
| 2026-05-06 14:15 | 47.99242 | 12.36809 | 20068 ft | 391 kts | 150° |
| 2026-05-06 14:15 | 47.97092 | 12.39309 | 20843 ft | 400 kts | 143° |
| 2026-05-06 14:15 | 47.95027 | 12.42164 | 21686 ft | 405 kts | 142° |
| 2026-05-06 14:15 | 47.92982 | 12.45029 | 22439 ft | 410 kts | 142° |
| 2026-05-06 14:16 | 47.90885 | 12.47961 | 23135 ft | 416 kts | 142° |
| 2026-05-06 14:16 | 47.88762 | 12.50923 | 23817 ft | 422 kts | 142° |
| 2026-05-06 14:16 | 47.86639 | 12.53881 | 24558 ft | 426 kts | 142° |
| 2026-05-06 14:16 | 47.84471 | 12.56898 | 25302 ft | 430 kts | 142° |
| 2026-05-06 14:17 | 47.82258 | 12.59972 | 25996 ft | 434 kts | 142° |
| 2026-05-06 14:17 | 47.80103 | 12.63085 | 26625 ft | 441 kts | 141° |
| 2026-05-06 14:17 | 47.77931 | 12.66355 | 27293 ft | 445 kts | 141° |
| 2026-05-06 14:17 | 47.75753 | 12.69631 | 27871 ft | 450 kts | 142° |
| 2026-05-06 14:18 | 47.73556 | 12.72925 | 28513 ft | 453 kts | 141° |
| 2026-05-06 14:18 | 47.71326 | 12.76257 | 28792 ft | 457 kts | 142° |
| 2026-05-06 14:18 | 47.66890 | 12.82874 | 28775 ft | 449 kts | 142° |
| 2026-05-06 14:19 | 47.62369 | 12.89576 | 28798 ft | 454 kts | 142° |
| 2026-05-06 14:19 | 47.57914 | 12.96165 | 28805 ft | 452 kts | 142° |
| 2026-05-06 14:20 | 47.53486 | 13.02692 | 28828 ft | 452 kts | 142° |
| 2026-05-06 14:20 | 47.49040 | 13.09226 | 28830 ft | 454 kts | 142° |
| 2026-05-06 14:21 | 47.44575 | 13.15775 | 28830 ft | 451 kts | 142° |
| 2026-05-06 14:21 | 47.40126 | 13.22280 | 28827 ft | 453 kts | 142° |
| 2026-05-06 14:22 | 47.35645 | 13.28817 | 28836 ft | 454 kts | 142° |
| 2026-05-06 14:22 | 47.31491 | 13.35896 | 28833 ft | 472 kts | 130° |
| 2026-05-06 14:23 | 47.29671 | 13.39992 | 28878 ft | 489 kts | 129° |
| 2026-05-06 14:23 | 47.27823 | 13.44205 | 29226 ft | 498 kts | 128° |
| 2026-05-06 14:23 | 47.25948 | 13.48484 | 30050 ft | 497 kts | 128° |
| 2026-05-06 14:23 | 47.24106 | 13.52681 | 31116 ft | 490 kts | 129° |
| 2026-05-06 14:24 | 47.22272 | 13.56851 | 32080 ft | 484 kts | 129° |
| 2026-05-06 14:24 | 47.20443 | 13.60994 | 32729 ft | 484 kts | 129° |
| 2026-05-06 14:24 | 47.18611 | 13.65131 | 32846 ft | 489 kts | 129° |
| 2026-05-06 14:24 | 47.16727 | 13.69382 | 32841 ft | 485 kts | 130° |
| 2026-05-06 14:25 | 47.13049 | 13.77661 | 32839 ft | 484 kts | 130° |
| 2026-05-06 14:25 | 47.09365 | 13.85921 | 32838 ft | 482 kts | 129° |
| 2026-05-06 14:26 | 47.05679 | 13.94163 | 32845 ft | 485 kts | 129° |
| 2026-05-06 14:26 | 47.02005 | 14.02353 | 32856 ft | 482 kts | 129° |
| 2026-05-06 14:27 | 46.98294 | 14.10598 | 32867 ft | 486 kts | 129° |
| 2026-05-06 14:27 | 46.94586 | 14.18814 | 32871 ft | 485 kts | 129° |
| 2026-05-06 14:28 | 46.90862 | 14.27041 | 32878 ft | 484 kts | 129° |
| 2026-05-06 14:28 | 46.87154 | 14.35207 | 32888 ft | 486 kts | 129° |
| 2026-05-06 14:29 | 46.83404 | 14.43443 | 32895 ft | 484 kts | 129° |
| 2026-05-06 14:29 | 46.79655 | 14.51650 | 32893 ft | 485 kts | 129° |
| 2026-05-06 14:30 | 46.75948 | 14.59745 | 32892 ft | 484 kts | 129° |
| 2026-05-06 14:30 | 46.72225 | 14.67847 | 32878 ft | 484 kts | 129° |
| 2026-05-06 14:31 | 46.68482 | 14.75973 | 32877 ft | 482 kts | 129° |
| 2026-05-06 14:31 | 46.64743 | 14.84062 | 32878 ft | 484 kts | 129° |
| 2026-05-06 14:32 | 46.60945 | 14.92073 | 32879 ft | 480 kts | 135° |
| 2026-05-06 14:32 | 46.56503 | 14.99453 | 33513 ft | 486 kts | 137° |
| 2026-05-06 14:33 | 46.54287 | 15.03060 | 34429 ft | 479 kts | 137° |
| 2026-05-06 14:33 | 46.52080 | 15.06645 | 35215 ft | 471 kts | 137° |
| 2026-05-06 14:33 | 46.49912 | 15.10159 | 35699 ft | 470 kts | 137° |
| 2026-05-06 14:33 | 46.47729 | 15.13690 | 36036 ft | 471 kts | 137° |
| 2026-05-06 14:34 | 46.45525 | 15.17248 | 36349 ft | 472 kts | 137° |
| 2026-05-06 14:34 | 46.43339 | 15.20774 | 36772 ft | 470 kts | 137° |
| 2026-05-06 14:34 | 46.41166 | 15.24274 | 36882 ft | 473 kts | 137° |
| 2026-05-06 14:34 | 46.38951 | 15.27837 | 36896 ft | 471 kts | 136° |
| 2026-05-06 14:35 | 46.34614 | 15.34802 | 36894 ft | 467 kts | 136° |
| 2026-05-06 14:35 | 46.30245 | 15.41796 | 36898 ft | 470 kts | 136° |
| 2026-05-06 14:36 | 46.25900 | 15.48738 | 36887 ft | 467 kts | 137° |
| 2026-05-06 14:36 | 46.21531 | 15.55698 | 36888 ft | 467 kts | 137° |
| 2026-05-06 14:37 | 46.17228 | 15.62620 | 36885 ft | 468 kts | 133° |
| 2026-05-06 14:37 | 46.13438 | 15.70251 | 36887 ft | 471 kts | 130° |
| 2026-05-06 14:38 | 46.09673 | 15.78017 | 36890 ft | 470 kts | 130° |
| 2026-05-06 14:38 | 46.05935 | 15.85694 | 36885 ft | 472 kts | 130° |
| 2026-05-06 14:39 | 46.02189 | 15.93361 | 36895 ft | 469 kts | 130° |
| 2026-05-06 14:39 | 45.98411 | 16.01069 | 36891 ft | 469 kts | 130° |
| 2026-05-06 14:40 | 45.94662 | 16.08693 | 36892 ft | 470 kts | 130° |
| 2026-05-06 14:40 | 45.90906 | 16.16310 | 36893 ft | 469 kts | 130° |
| 2026-05-06 14:41 | 45.87117 | 16.23974 | 36897 ft | 472 kts | 130° |
| 2026-05-06 14:41 | 45.83335 | 16.31602 | 36899 ft | 471 kts | 130° |
| 2026-05-06 14:42 | 45.79550 | 16.39217 | 36896 ft | 472 kts | 130° |
| 2026-05-06 14:42 | 45.75741 | 16.46859 | 36896 ft | 471 kts | 130° |
| 2026-05-06 14:43 | 45.71930 | 16.54483 | 36900 ft | 474 kts | 130° |
| 2026-05-06 14:43 | 45.68115 | 16.62095 | 36897 ft | 472 kts | 130° |
| 2026-05-06 14:44 | 45.64270 | 16.69747 | 36888 ft | 473 kts | 130° |
| 2026-05-06 14:45 | 45.58538 | 16.81115 | 36887 ft | 474 kts | 131° |
| 2026-05-06 14:45 | 45.54687 | 16.88729 | 36886 ft | 473 kts | 130° |
| 2026-05-06 14:45 | 45.52748 | 16.92552 | 36778 ft | 476 kts | 130° |
| 2026-05-06 14:46 | 45.50818 | 16.96355 | 36877 ft | 472 kts | 131° |
| 2026-05-06 14:46 | 45.48900 | 17.00129 | 37058 ft | 476 kts | 130° |
| 2026-05-06 14:46 | 45.46970 | 17.03922 | 36879 ft | 472 kts | 131° |
| 2026-05-06 14:47 | 45.43142 | 17.11428 | 36882 ft | 474 kts | 131° |
| 2026-05-06 14:47 | 45.39267 | 17.19005 | 36884 ft | 474 kts | 130° |
| 2026-05-06 14:48 | 45.35381 | 17.26585 | 36883 ft | 474 kts | 130° |
| 2026-05-06 14:48 | 45.31482 | 17.34168 | 36601 ft | 476 kts | 130° |
| 2026-05-06 14:48 | 45.29548 | 17.37925 | 36884 ft | 476 kts | 130° |
| 2026-05-06 14:49 | 45.27581 | 17.41736 | 36881 ft | 482 kts | 130° |
| 2026-05-06 14:49 | 45.23615 | 17.49412 | 36886 ft | 480 kts | 130° |
| 2026-05-06 14:50 | 45.19679 | 17.57006 | 36888 ft | 484 kts | 130° |
| 2026-05-06 14:50 | 45.15716 | 17.64635 | 36889 ft | 483 kts | 130° |
| 2026-05-06 14:51 | 45.11722 | 17.72302 | 36879 ft | 481 kts | 131° |
| 2026-05-06 14:51 | 45.07745 | 17.79916 | 36880 ft | 484 kts | 130° |
| 2026-05-06 14:52 | 45.03733 | 17.87562 | 36878 ft | 484 kts | 131° |
| 2026-05-06 14:52 | 44.99586 | 17.94986 | 36867 ft | 484 kts | 129° |
| 2026-05-06 14:53 | 44.96265 | 18.03359 | 36897 ft | 491 kts | 118° |
| 2026-05-06 14:53 | 44.93353 | 18.12028 | 36915 ft | 491 kts | 118° |
| 2026-05-06 14:54 | 44.90428 | 18.20722 | 36928 ft | 491 kts | 118° |
| 2026-05-06 14:54 | 44.87519 | 18.29335 | 36934 ft | 490 kts | 118° |
| 2026-05-06 14:55 | 44.84562 | 18.38063 | 36920 ft | 492 kts | 118° |
| 2026-05-06 14:55 | 44.81638 | 18.46665 | 36928 ft | 493 kts | 118° |
| 2026-05-06 14:56 | 44.78674 | 18.55355 | 36914 ft | 493 kts | 117° |
| 2026-05-06 14:56 | 44.75697 | 18.64054 | 36918 ft | 495 kts | 118° |
| 2026-05-06 14:57 | 44.72708 | 18.72762 | 36921 ft | 492 kts | 118° |
| 2026-05-06 14:57 | 44.69737 | 18.81385 | 36928 ft | 494 kts | 118° |
| 2026-05-06 14:58 | 44.66768 | 18.89980 | 36925 ft | 491 kts | 118° |
| 2026-05-06 14:58 | 44.63768 | 18.98632 | 36928 ft | 494 kts | 118° |
| 2026-05-06 14:59 | 44.60782 | 19.07222 | 36927 ft | 493 kts | 118° |
| 2026-05-06 14:59 | 44.57621 | 19.15719 | 36926 ft | 491 kts | 122° |
| 2026-05-06 15:00 | 44.54176 | 19.23936 | 36917 ft | 492 kts | 122° |
| 2026-05-06 15:00 | 44.50746 | 19.32143 | 36923 ft | 492 kts | 122° |
| 2026-05-06 15:01 | 44.47307 | 19.40386 | 36925 ft | 492 kts | 122° |
| 2026-05-06 15:01 | 44.43868 | 19.48628 | 36927 ft | 491 kts | 122° |
| 2026-05-06 15:02 | 44.40432 | 19.56848 | 36933 ft | 490 kts | 122° |
| 2026-05-06 15:02 | 44.37006 | 19.65026 | 36940 ft | 489 kts | 122° |
| 2026-05-06 15:03 | 44.33559 | 19.73235 | 36946 ft | 490 kts | 122° |
| 2026-05-06 15:03 | 44.30123 | 19.81395 | 36957 ft | 488 kts | 122° |
| 2026-05-06 15:04 | 44.26682 | 19.89545 | 37108 ft | 491 kts | 122° |
| 2026-05-06 15:04 | 44.24968 | 19.93596 | 36953 ft | 485 kts | 122° |
| 2026-05-06 15:04 | 44.23254 | 19.97642 | 36949 ft | 484 kts | 122° |
| 2026-05-06 15:05 | 44.19830 | 20.05707 | 36946 ft | 487 kts | 122° |
| 2026-05-06 15:05 | 44.16400 | 20.13762 | 36960 ft | 485 kts | 122° |
| 2026-05-06 15:06 | 44.12913 | 20.21843 | 36964 ft | 486 kts | 124° |
| 2026-05-06 15:06 | 44.09227 | 20.29700 | 36963 ft | 485 kts | 124° |
| 2026-05-06 15:06 | 44.07408 | 20.33564 | 36591 ft | 485 kts | 124° |
| 2026-05-06 15:07 | 44.05562 | 20.37485 | 36844 ft | 484 kts | 124° |
| 2026-05-06 15:07 | 44.03694 | 20.41453 | 36970 ft | 488 kts | 124° |
| 2026-05-06 15:07 | 44.01846 | 20.45377 | 36975 ft | 488 kts | 124° |
| 2026-05-06 15:08 | 43.98151 | 20.53218 | 36970 ft | 486 kts | 124° |
| 2026-05-06 15:08 | 43.94436 | 20.61082 | 36964 ft | 487 kts | 124° |
| 2026-05-06 15:09 | 43.90736 | 20.68900 | 36968 ft | 487 kts | 125° |
| 2026-05-06 15:09 | 43.87014 | 20.76744 | 36967 ft | 488 kts | 125° |
| 2026-05-06 15:10 | 43.83284 | 20.84583 | 36969 ft | 487 kts | 125° |
| 2026-05-06 15:10 | 43.79581 | 20.92347 | 36978 ft | 486 kts | 125° |
| 2026-05-06 15:11 | 43.75971 | 21.00217 | 36991 ft | 486 kts | 121° |
| 2026-05-06 15:11 | 43.72552 | 21.08334 | 36988 ft | 489 kts | 121° |
| 2026-05-06 15:12 | 43.69132 | 21.16400 | 36987 ft | 489 kts | 121° |
| 2026-05-06 15:12 | 43.65698 | 21.24449 | 36983 ft | 490 kts | 121° |
| 2026-05-06 15:13 | 43.62242 | 21.32511 | 36972 ft | 489 kts | 121° |
| 2026-05-06 15:13 | 43.58776 | 21.40564 | 36976 ft | 490 kts | 121° |
| 2026-05-06 15:14 | 43.55307 | 21.48599 | 36985 ft | 491 kts | 121° |
| 2026-05-06 15:14 | 43.51807 | 21.56680 | 36981 ft | 491 kts | 121° |
| 2026-05-06 15:15 | 43.48324 | 21.64701 | 36982 ft | 491 kts | 121° |
| 2026-05-06 15:15 | 43.44801 | 21.72790 | 36969 ft | 491 kts | 122° |
| 2026-05-06 15:16 | 43.41294 | 21.80818 | 36974 ft | 491 kts | 122° |
| 2026-05-06 15:16 | 43.37780 | 21.88839 | 36980 ft | 491 kts | 122° |
| 2026-05-06 15:17 | 43.34262 | 21.96849 | 36982 ft | 492 kts | 122° |
| 2026-05-06 15:17 | 43.30722 | 22.04888 | 36981 ft | 493 kts | 121° |
| 2026-05-06 15:18 | 43.27184 | 22.12897 | 36980 ft | 493 kts | 121° |
| 2026-05-06 15:18 | 43.23620 | 22.20946 | 36983 ft | 493 kts | 121° |
| 2026-05-06 15:19 | 43.20063 | 22.28955 | 37000 ft | 492 kts | 121° |
| 2026-05-06 15:19 | 43.16509 | 22.36936 | 37013 ft | 492 kts | 121° |
| 2026-05-06 15:20 | 43.12945 | 22.44918 | 37032 ft | 494 kts | 121° |
| 2026-05-06 15:20 | 43.09385 | 22.52868 | 37043 ft | 495 kts | 121° |
| 2026-05-06 15:21 | 43.05796 | 22.60862 | 37045 ft | 494 kts | 121° |
| 2026-05-06 15:21 | 43.02203 | 22.68845 | 37049 ft | 495 kts | 122° |
| 2026-05-06 15:22 | 42.98576 | 22.76820 | 37038 ft | 495 kts | 125° |
| 2026-05-06 15:22 | 42.94034 | 22.83814 | 37048 ft | 494 kts | 137° |
| 2026-05-06 15:23 | 42.89040 | 22.90261 | 37049 ft | 495 kts | 137° |
| 2026-05-06 15:23 | 42.84030 | 22.96681 | 37050 ft | 496 kts | 137° |
| 2026-05-06 15:24 | 42.79026 | 23.03070 | 37049 ft | 496 kts | 137° |
| 2026-05-06 15:24 | 42.73998 | 23.09471 | 37050 ft | 496 kts | 137° |
| 2026-05-06 15:25 | 42.68956 | 23.15870 | 37053 ft | 497 kts | 137° |
| 2026-05-06 15:25 | 42.63935 | 23.22227 | 37063 ft | 497 kts | 137° |
| 2026-05-06 15:26 | 42.58879 | 23.28612 | 37077 ft | 496 kts | 137° |
| 2026-05-06 15:26 | 42.53812 | 23.34996 | 37087 ft | 498 kts | 137° |
| 2026-05-06 15:27 | 42.48766 | 23.41339 | 37086 ft | 498 kts | 137° |
| 2026-05-06 15:27 | 42.43686 | 23.47709 | 37074 ft | 497 kts | 137° |
| 2026-05-06 15:28 | 42.38633 | 23.54030 | 37085 ft | 498 kts | 137° |
| 2026-05-06 15:28 | 42.33570 | 23.60349 | 37091 ft | 499 kts | 137° |
| 2026-05-06 15:29 | 42.28462 | 23.66693 | 37091 ft | 498 kts | 138° |
| 2026-05-06 15:29 | 42.23338 | 23.72932 | 37109 ft | 498 kts | 139° |
| 2026-05-06 15:30 | 42.18190 | 23.79185 | 37107 ft | 498 kts | 139° |
| 2026-05-06 15:30 | 42.13034 | 23.85437 | 37101 ft | 499 kts | 138° |
| 2026-05-06 15:31 | 42.07909 | 23.91639 | 37103 ft | 498 kts | 138° |
| 2026-05-06 15:31 | 42.02744 | 23.97876 | 37096 ft | 500 kts | 138° |
| 2026-05-06 15:32 | 41.94997 | 24.07206 | 37118 ft | 499 kts | 138° |
| 2026-05-06 15:32 | 41.89831 | 24.13412 | 37116 ft | 501 kts | 138° |
| 2026-05-06 15:33 | 41.84661 | 24.19608 | 37106 ft | 501 kts | 138° |
| 2026-05-06 15:33 | 41.79475 | 24.25809 | 37112 ft | 501 kts | 138° |
| 2026-05-06 15:34 | 41.74279 | 24.32008 | 37116 ft | 503 kts | 138° |
| 2026-05-06 15:34 | 41.69067 | 24.38213 | 37106 ft | 503 kts | 138° |
| 2026-05-06 15:35 | 41.63838 | 24.44423 | 37105 ft | 503 kts | 138° |
| 2026-05-06 15:35 | 41.58616 | 24.50611 | 37102 ft | 504 kts | 138° |
| 2026-05-06 15:36 | 41.53370 | 24.56814 | 37104 ft | 505 kts | 138° |
| 2026-05-06 15:36 | 41.48127 | 24.62998 | 37096 ft | 504 kts | 138° |
| 2026-05-06 15:37 | 41.42876 | 24.69179 | 37083 ft | 505 kts | 139° |
| 2026-05-06 15:37 | 41.37802 | 24.75564 | 37076 ft | 505 kts | 135° |
| 2026-05-06 15:38 | 41.32806 | 24.82159 | 37078 ft | 505 kts | 135° |
| 2026-05-06 15:38 | 41.27808 | 24.88713 | 37068 ft | 506 kts | 135° |
| 2026-05-06 15:39 | 41.22805 | 24.95241 | 37067 ft | 508 kts | 135° |
| 2026-05-06 15:39 | 41.17759 | 25.01801 | 37051 ft | 507 kts | 135° |
| 2026-05-06 15:40 | 41.12754 | 25.08287 | 37068 ft | 507 kts | 135° |
| 2026-05-06 15:40 | 41.07683 | 25.14842 | 37067 ft | 507 kts | 135° |
| 2026-05-06 15:41 | 41.02657 | 25.21322 | 37051 ft | 507 kts | 135° |
| 2026-05-06 15:41 | 40.97595 | 25.27832 | 37058 ft | 506 kts | 135° |
| 2026-05-06 15:42 | 40.92567 | 25.34284 | 37060 ft | 508 kts | 135° |
| 2026-05-06 15:42 | 40.87499 | 25.40773 | 37047 ft | 507 kts | 134° |
| 2026-05-06 15:43 | 40.82430 | 25.47247 | 37046 ft | 508 kts | 134° |
| 2026-05-06 15:43 | 40.77360 | 25.53710 | 37043 ft | 508 kts | 134° |
| 2026-05-06 15:44 | 40.72284 | 25.60165 | 37043 ft | 509 kts | 134° |
| 2026-05-06 15:44 | 40.67166 | 25.66659 | 37044 ft | 509 kts | 135° |
| 2026-05-06 15:45 | 40.62105 | 25.73066 | 37043 ft | 508 kts | 135° |
| 2026-05-06 15:45 | 40.56989 | 25.79528 | 37043 ft | 510 kts | 135° |
| 2026-05-06 15:46 | 40.51902 | 25.85947 | 37034 ft | 510 kts | 134° |
| 2026-05-06 15:46 | 40.47595 | 25.93218 | 37042 ft | 507 kts | 120° |
| 2026-05-06 15:47 | 40.43825 | 26.01029 | 37043 ft | 507 kts | 120° |
| 2026-05-06 15:47 | 40.40074 | 26.08785 | 37047 ft | 506 kts | 120° |
| 2026-05-06 15:48 | 40.36280 | 26.16597 | 37052 ft | 508 kts | 120° |
| 2026-05-06 15:48 | 40.32492 | 26.24371 | 37052 ft | 507 kts | 120° |
| 2026-05-06 15:49 | 40.28702 | 26.32125 | 37056 ft | 508 kts | 120° |
| 2026-05-06 15:49 | 40.24910 | 26.39860 | 37058 ft | 508 kts | 120° |
| 2026-05-06 15:50 | 40.21100 | 26.47613 | 37061 ft | 509 kts | 120° |
| 2026-05-06 15:50 | 40.17268 | 26.55390 | 37066 ft | 508 kts | 120° |
| 2026-05-06 15:51 | 40.13456 | 26.63108 | 37073 ft | 510 kts | 120° |
| 2026-05-06 15:51 | 40.09599 | 26.70896 | 37066 ft | 510 kts | 120° |
| 2026-05-06 15:52 | 40.05753 | 26.78645 | 37071 ft | 510 kts | 120° |
| 2026-05-06 15:52 | 40.01890 | 26.86405 | 37070 ft | 512 kts | 120° |
| 2026-05-06 15:53 | 39.98029 | 26.94145 | 37075 ft | 512 kts | 120° |